Time;durP1;ratioP1;P1;durP2;ratioP2;P2;SDS_P1;SDS_P2;PMS_P1;PMS_P2;Temp;Humidity;BMP_temperature;BMP_pressure;BME280_temperature;BME280_humidity;BME280_pressure;Samples;Min_cycle;Max_cycle;Signal;HPM_P1;HPM_P2
2021/07/17 00:01:26;;;;;;;36.03;33.43;;;;;;;;;;5053659;28;20460;-65
2021/07/17 00:03:53;;;;;;;35.30;32.80;;;;;;;;;;5051587;28;20494;-65
2021/07/17 00:06:20;;;;;;;35.77;33.47;;;;;;;;;;5051838;28;20949;-64
2021/07/17 00:08:49;;;;;;;37.90;35.20;;;;;;;;;;5051068;28;20448;-65
2021/07/17 00:11:16;;;;;;;36.87;34.30;;;;;;;;;;5031873;28;20460;-65
2021/07/17 00:13:43;;;;;;;37.20;34.50;;;;;;;;;;5043027;28;21012;-65
2021/07/17 00:16:11;;;;;;;37.57;34.90;;;;;;;;;;5051619;28;20458;-64
2021/07/17 00:18:39;;;;;;;36.57;34.17;;;;;;;;;;5050749;28;20458;-65
2021/07/17 00:21:06;;;;;;;37.00;34.50;;;;;;;;;;5051589;28;21158;-65
2021/07/17 00:23:33;;;;;;;38.40;36.00;;;;;;;;;;5051579;28;20502;-65
2021/07/17 00:26:02;;;;;;;38.13;35.73;;;;;;;;;;5051356;28;20479;-64
2021/07/17 00:28:29;;;;;;;39.40;36.60;;;;;;;;;;5051360;28;21040;-65
2021/07/17 00:30:57;;;;;;;38.17;35.57;;;;;;;;;;5049470;28;20452;-65
2021/07/17 00:33:24;;;;;;;36.53;34.13;;;;;;;;;;5051496;28;20474;-65
2021/07/17 00:35:52;;;;;;;36.33;33.73;;;;;;;;;;5050087;28;20951;-64
2021/07/17 00:38:19;;;;;;;38.43;35.70;;;;;;;;;;5054406;28;20456;-64
2021/07/17 00:40:46;;;;;;;36.50;34.10;;;;;;;;;;5054944;28;20557;-65
2021/07/17 00:43:14;;;;;;;37.00;34.60;;;;;;;;;;5054767;28;20490;-65
2021/07/17 00:45:41;;;;;;;35.37;33.07;;;;;;;;;;5055009;28;20454;-65
2021/07/17 00:48:08;;;;;;;37.20;34.17;;;;;;;;;;5055587;28;20450;-64
2021/07/17 00:50:35;;;;;;;37.77;34.90;;;;;;;;;;5054347;28;20485;-64
2021/07/17 00:53:04;;;;;;;37.47;34.97;;;;;;;;;;5054863;28;20982;-64
2021/07/17 00:55:31;;;;;;;35.97;33.60;;;;;;;;;;5055277;28;20451;-64
2021/07/17 00:57:59;;;;;;;37.70;35.10;;;;;;;;;;5054947;28;20451;-65
2021/07/17 01:00:26;;;;;;;38.53;35.37;;;;;;;;;;5054068;28;20451;-64
2021/07/17 01:02:54;;;;;;;37.93;35.20;;;;;;;;;;5054908;28;20488;-64
2021/07/17 01:05:21;;;;;;;36.33;33.73;;;;;;;;;;5054951;28;20538;-64
2021/07/17 01:07:48;;;;;;;36.07;33.67;;;;;;;;;;5055140;28;20822;-64
2021/07/17 01:10:18;;;;;;;35.23;32.90;;;;;;;;;;5056006;28;20527;-65
2021/07/17 01:12:45;;;;;;;34.80;32.33;;;;;;;;;;5043871;28;20468;-64
2021/07/17 01:15:12;;;;;;;33.50;30.93;;;;;;;;;;5054003;28;20822;-64
2021/07/17 01:17:39;;;;;;;36.20;33.70;;;;;;;;;;5054945;28;20963;-65
2021/07/17 01:20:07;;;;;;;36.40;33.70;;;;;;;;;;5054401;28;20466;-64
2021/07/17 01:22:36;;;;;;;35.70;33.40;;;;;;;;;;5054602;28;20467;-64
2021/07/17 01:25:04;;;;;;;36.30;33.90;;;;;;;;;;5053921;28;20459;-64
2021/07/17 01:27:31;;;;;;;35.60;33.30;;;;;;;;;;5054539;28;20455;-64
2021/07/17 01:29:58;;;;;;;36.47;33.87;;;;;;;;;;5053469;28;20456;-64
2021/07/17 01:32:25;;;;;;;36.07;33.67;;;;;;;;;;5054407;28;20472;-64
2021/07/17 01:34:52;;;;;;;35.60;33.10;;;;;;;;;;5054405;28;20532;-65
2021/07/17 01:37:19;;;;;;;36.23;33.87;;;;;;;;;;5053665;28;20462;-63
2021/07/17 01:39:48;;;;;;;36.97;34.67;;;;;;;;;;5054561;28;20542;-65
2021/07/17 01:42:15;;;;;;;35.27;33.10;;;;;;;;;;5053832;28;20852;-62
2021/07/17 01:44:43;;;;;;;36.60;34.20;;;;;;;;;;5053570;28;20483;-64
2021/07/17 01:47:11;;;;;;;36.67;34.07;;;;;;;;;;5054395;28;20443;-63
2021/07/17 01:49:38;;;;;;;34.87;32.57;;;;;;;;;;5053802;28;20448;-65
2021/07/17 01:52:06;;;;;;;34.20;31.93;;;;;;;;;;5034628;28;21006;-63
2021/07/17 01:54:34;;;;;;;34.60;32.10;;;;;;;;;;5035144;28;20456;-63
2021/07/17 01:57:03;;;;;;;35.93;33.63;;;;;;;;;;5043030;28;20482;-64
2021/07/17 01:59:31;;;;;;;37.27;34.63;;;;;;;;;;5051749;28;20455;-63
2021/07/17 02:01:58;;;;;;;35.43;32.83;;;;;;;;;;5054670;28;20468;-63
2021/07/17 02:04:25;;;;;;;36.53;33.93;;;;;;;;;;5053368;28;21002;-64
2021/07/17 02:06:52;;;;;;;36.53;34.00;;;;;;;;;;5053213;28;20456;-62
2021/07/17 02:09:19;;;;;;;35.60;33.30;;;;;;;;;;5052862;28;20448;-64
2021/07/17 02:11:46;;;;;;;37.00;34.30;;;;;;;;;;5053888;28;20444;-63
2021/07/17 02:14:15;;;;;;;36.17;33.80;;;;;;;;;;5052811;28;20966;-64
2021/07/17 02:16:42;;;;;;;34.53;32.20;;;;;;;;;;5053899;28;20455;-64
2021/07/17 02:19:14;;;;;;;34.87;32.37;;;;;;;;;;5051697;28;20440;-68
2021/07/17 02:21:41;;;;;;;35.87;33.27;;;;;;;;;;5053272;28;21095;-62
2021/07/17 02:24:08;;;;;;;35.50;33.17;;;;;;;;;;5053522;28;20480;-64
2021/07/17 02:26:35;;;;;;;35.33;33.13;;;;;;;;;;5053422;28;20459;-63
2021/07/17 02:29:02;;;;;;;36.63;34.13;;;;;;;;;;5053298;28;20450;-63
2021/07/17 02:31:30;;;;;;;35.40;33.07;;;;;;;;;;5053059;28;20935;-63
2021/07/17 02:33:58;;;;;;;34.20;32.00;;;;;;;;;;5053014;28;20465;-65
2021/07/17 02:36:25;;;;;;;35.37;33.07;;;;;;;;;;5053097;28;20454;-60
2021/07/17 02:38:52;;;;;;;35.40;32.93;;;;;;;;;;5052952;28;20458;-63
2021/07/17 02:41:21;;;;;;;34.43;32.10;;;;;;;;;;5042914;28;20451;-61
2021/07/17 02:43:49;;;;;;;34.50;32.20;;;;;;;;;;5052040;28;20479;-61
2021/07/17 02:46:16;;;;;;;34.37;32.17;;;;;;;;;;5052777;28;20535;-61
2021/07/17 02:48:44;;;;;;;34.03;31.70;;;;;;;;;;5053078;28;20462;-61
2021/07/17 02:51:12;;;;;;;35.40;33.20;;;;;;;;;;5052418;28;20546;-61
2021/07/17 02:53:39;;;;;;;35.07;32.87;;;;;;;;;;5052687;28;20534;-61
2021/07/17 02:56:06;;;;;;;35.27;32.90;;;;;;;;;;5052453;28;20466;-61
2021/07/17 02:58:33;;;;;;;35.17;32.80;;;;;;;;;;5051981;28;21076;-61
2021/07/17 03:01:01;;;;;;;35.20;33.00;;;;;;;;;;5046389;28;20448;-61
2021/07/17 03:03:28;;;;;;;34.90;32.70;;;;;;;;;;5052631;28;20486;-60
2021/07/17 03:05:56;;;;;;;34.70;32.40;;;;;;;;;;5052222;28;20556;-61
2021/07/17 03:08:23;;;;;;;34.33;32.03;;;;;;;;;;5052989;28;20444;-61
2021/07/17 03:10:51;;;;;;;34.37;32.07;;;;;;;;;;5050284;28;20833;-62
2021/07/17 03:13:18;;;;;;;34.20;32.00;;;;;;;;;;5053033;28;20474;-61
2021/07/17 03:15:47;;;;;;;34.47;32.27;;;;;;;;;;5051920;28;20458;-61
2021/07/17 03:18:16;;;;;;;34.97;32.47;;;;;;;;;;5052871;28;21001;-60
2021/07/17 03:20:43;;;;;;;34.23;32.23;;;;;;;;;;5039158;28;20444;-60
2021/07/17 03:23:12;;;;;;;34.00;31.70;;;;;;;;;;5032482;28;20490;-64
2021/07/17 03:25:39;;;;;;;32.50;30.20;;;;;;;;;;5045925;28;20452;-63
2021/07/17 03:28:06;;;;;;;33.67;31.27;;;;;;;;;;5052349;28;20444;-64
2021/07/17 03:30:34;;;;;;;34.13;31.93;;;;;;;;;;5052080;28;20847;-64
2021/07/17 03:33:01;;;;;;;33.53;31.33;;;;;;;;;;5051890;28;20467;-66
2021/07/17 03:35:28;;;;;;;35.50;33.10;;;;;;;;;;5051663;28;20448;-64
2021/07/17 03:37:55;;;;;;;34.57;32.27;;;;;;;;;;5051864;28;20458;-66
2021/07/17 03:40:23;;;;;;;35.60;33.20;;;;;;;;;;5051489;28;20462;-63
2021/07/17 03:42:51;;;;;;;34.87;32.60;;;;;;;;;;5051767;28;20554;-63
2021/07/17 03:45:18;;;;;;;33.00;30.87;;;;;;;;;;5051909;28;20845;-65
2021/07/17 03:47:45;;;;;;;34.20;32.00;;;;;;;;;;5051892;28;20447;-64
2021/07/17 03:50:12;;;;;;;33.43;31.23;;;;;;;;;;5051537;28;20451;-70
2021/07/17 03:52:39;;;;;;;32.83;30.60;;;;;;;;;;5051474;28;20490;-63
2021/07/17 03:55:07;;;;;;;33.80;31.60;;;;;;;;;;5051232;28;20818;-64
2021/07/17 03:57:36;;;;;;;33.93;31.70;;;;;;;;;;5052122;28;20452;-63
2021/07/17 04:00:04;;;;;;;33.33;31.13;;;;;;;;;;5037509;28;20828;-64
2021/07/17 04:02:39;;;;;;;34.00;31.83;;;;;;;;;;5031408;28;20477;-63
2021/07/17 04:05:07;;;;;;;34.40;32.17;;;;;;;;;;5046442;28;20491;-63
2021/07/17 04:07:34;;;;;;;33.10;31.10;;;;;;;;;;5051522;28;20542;-64
2021/07/17 04:10:01;;;;;;;32.60;30.60;;;;;;;;;;5051473;28;20447;-63
2021/07/17 04:12:28;;;;;;;32.43;30.23;;;;;;;;;;5050551;28;20467;-63
2021/07/17 04:14:57;;;;;;;33.20;30.80;;;;;;;;;;5050940;28;21039;-62
2021/07/17 04:17:24;;;;;;;32.10;29.90;;;;;;;;;;5051366;28;20456;-65
2021/07/17 04:19:52;;;;;;;31.87;29.67;;;;;;;;;;5051077;28;20478;-66
2021/07/17 04:22:19;;;;;;;31.67;29.63;;;;;;;;;;5050908;28;20982;-66
2021/07/17 04:24:46;;;;;;;32.77;30.37;;;;;;;;;;5050788;28;20486;-64
2021/07/17 04:27:13;;;;;;;31.87;29.87;;;;;;;;;;5051204;28;20941;-66
2021/07/17 04:29:40;;;;;;;31.67;29.47;;;;;;;;;;5051175;28;20454;-65
2021/07/17 04:32:09;;;;;;;32.40;30.20;;;;;;;;;;5050957;28;20494;-66
2021/07/17 04:34:36;;;;;;;32.40;30.30;;;;;;;;;;5050580;28;20817;-65
2021/07/17 04:37:03;;;;;;;31.53;29.63;;;;;;;;;;5050864;28;20459;-66
2021/07/17 04:39:30;;;;;;;33.17;30.60;;;;;;;;;;5051100;28;20456;-66
2021/07/17 04:41:58;;;;;;;32.80;30.57;;;;;;;;;;5051275;28;20454;-67
2021/07/17 04:44:25;;;;;;;32.60;30.43;;;;;;;;;;5050341;28;20479;-66
2021/07/17 04:46:52;;;;;;;32.97;30.77;;;;;;;;;;5051493;28;20947;-63
2021/07/17 04:49:20;;;;;;;33.90;31.70;;;;;;;;;;5050209;28;20440;-63
2021/07/17 04:51:48;;;;;;;32.10;29.63;;;;;;;;;;5051297;28;20462;-64
2021/07/17 04:54:15;;;;;;;31.97;29.97;;;;;;;;;;5043100;28;20859;-66
2021/07/17 04:56:42;;;;;;;31.50;29.23;;;;;;;;;;5031496;28;20459;-63
2021/07/17 04:59:09;;;;;;;31.60;29.30;;;;;;;;;;5056771;22;20470;-68
2021/07/17 05:01:36;;;;;;;31.83;29.43;;;;;;;;;;5065584;28;20975;-67
2021/07/17 05:04:03;;;;;;;31.90;29.60;;;;;;;;;;5070642;28;20483;-66
2021/07/17 05:06:32;;;;;;;31.80;29.90;;;;;;;;;;5070709;28;20454;-67
2021/07/17 05:08:59;;;;;;;31.33;29.33;;;;;;;;;;5066635;28;20448;-67
2021/07/17 05:11:26;;;;;;;29.40;27.40;;;;;;;;;;5039500;28;20456;-66
2021/07/17 05:13:53;;;;;;;30.03;27.93;;;;;;;;;;5050503;28;20454;-66
2021/07/17 05:16:20;;;;;;;29.50;27.40;;;;;;;;;;5050781;28;20802;-65
2021/07/17 05:18:48;;;;;;;28.63;26.93;;;;;;;;;;5044049;28;20452;-66
2021/07/17 05:21:15;;;;;;;29.40;27.50;;;;;;;;;;5048927;28;20862;-65
2021/07/17 05:23:44;;;;;;;28.70;27.00;;;;;;;;;;5051735;28;20547;-65
2021/07/17 05:26:11;;;;;;;28.47;26.67;;;;;;;;;;5054595;28;20483;-66
2021/07/17 05:28:38;;;;;;;28.80;26.90;;;;;;;;;;5054426;28;20452;-65
2021/07/17 05:31:05;;;;;;;27.87;26.13;;;;;;;;;;5054201;28;20480;-67
2021/07/17 05:33:32;;;;;;;27.57;25.83;;;;;;;;;;5045337;28;20452;-66
2021/07/17 05:36:00;;;;;;;26.70;25.00;;;;;;;;;;5034552;28;20960;-67
2021/07/17 05:38:27;;;;;;;26.50;24.80;;;;;;;;;;5034676;28;20444;-65
2021/07/17 05:40:55;;;;;;;26.60;24.90;;;;;;;;;;5035418;28;20476;-67
2021/07/17 05:43:22;;;;;;;26.20;24.70;;;;;;;;;;5035338;28;20463;-66
2021/07/17 05:45:52;;;;;;;26.90;25.30;;;;;;;;;;5034861;28;20572;-68
2021/07/17 05:48:19;;;;;;;28.63;26.37;;;;;;;;;;5034929;28;20464;-65
2021/07/17 05:50:48;;;;;;;26.40;24.90;;;;;;;;;;5034868;28;20469;-65
2021/07/17 05:53:15;;;;;;;24.47;22.97;;;;;;;;;;5034164;28;20951;-65
2021/07/17 05:55:42;;;;;;;24.83;23.23;;;;;;;;;;5044219;28;20464;-69
2021/07/17 05:58:11;;;;;;;24.83;23.30;;;;;;;;;;5053573;28;21110;-68
2021/07/17 06:00:38;;;;;;;25.23;23.83;;;;;;;;;;5036390;28;20486;-68
2021/07/17 06:03:05;;;;;;;24.73;23.23;;;;;;;;;;5034088;28;20476;-69
2021/07/17 06:05:32;;;;;;;24.30;22.90;;;;;;;;;;5050480;28;20484;-68
2021/07/17 06:07:59;;;;;;;34.50;32.67;;;;;;;;;;5053943;28;20455;-68
2021/07/17 06:10:26;;;;;;;23.70;22.37;;;;;;;;;;5052934;28;20475;-68
2021/07/17 06:12:53;;;;;;;23.37;22.00;;;;;;;;;;5053587;28;20455;-68
2021/07/17 06:15:22;;;;;;;22.93;21.60;;;;;;;;;;5053048;28;20452;-69
2021/07/17 06:17:53;;;;;;;22.73;21.40;;;;;;;;;;5050502;28;20535;-68
2021/07/17 06:20:20;;;;;;;24.10;22.60;;;;;;;;;;5053110;28;20560;-68
2021/07/17 06:22:47;;;;;;;23.07;21.73;;;;;;;;;;5053338;28;20927;-68
2021/07/17 06:25:14;;;;;;;22.83;21.57;;;;;;;;;;5052728;28;20490;-68
2021/07/17 06:27:41;;;;;;;22.37;21.03;;;;;;;;;;5053442;28;20799;-68
2021/07/17 06:30:09;;;;;;;22.93;21.50;;;;;;;;;;5049427;28;20475;-68
2021/07/17 06:32:37;;;;;;;22.80;21.30;;;;;;;;;;5053420;28;20444;-68
2021/07/17 06:35:05;;;;;;;22.30;21.10;;;;;;;;;;5046765;28;20451;-68
2021/07/17 06:37:32;;;;;;;21.83;20.53;;;;;;;;;;5052713;28;20454;-68
2021/07/17 06:39:59;;;;;;;22.07;20.77;;;;;;;;;;5052254;28;20472;-68
2021/07/17 06:42:26;;;;;;;21.87;20.57;;;;;;;;;;5052774;28;20455;-68
2021/07/17 06:44:53;;;;;;;22.03;20.73;;;;;;;;;;5045410;28;21006;-69
2021/07/17 06:47:20;;;;;;;22.07;20.57;;;;;;;;;;5053201;28;20452;-68
2021/07/17 06:49:49;;;;;;;22.00;20.70;;;;;;;;;;5046762;28;20927;-69
2021/07/17 06:52:16;;;;;;;22.00;20.30;;;;;;;;;;5041093;28;20440;-69
2021/07/17 06:54:43;;;;;;;21.83;20.53;;;;;;;;;;5052858;28;20458;-68
2021/07/17 06:57:10;;;;;;;21.10;19.80;;;;;;;;;;5046369;28;20472;-67
2021/07/17 06:59:37;;;;;;;21.60;20.40;;;;;;;;;;5033326;28;20473;-66
2021/07/17 07:02:04;;;;;;;20.40;19.20;;;;;;;;;;5033272;28;20453;-67
2021/07/17 07:04:32;;;;;;;20.87;19.60;;;;;;;;;;5037017;28;20452;-67
2021/07/17 07:07:00;;;;;;;21.53;20.17;;;;;;;;;;5050808;28;20458;-67
2021/07/17 07:09:27;;;;;;;20.63;19.40;;;;;;;;;;5050636;28;20480;-66
2021/07/17 07:11:54;;;;;;;21.97;20.67;;;;;;;;;;5034271;28;20453;-67
2021/07/17 07:14:21;;;;;;;20.90;19.80;;;;;;;;;;5034134;28;20457;-67
2021/07/17 07:16:49;;;;;;;21.27;19.90;;;;;;;;;;5035034;28;20459;-67
2021/07/17 07:19:16;;;;;;;20.60;19.40;;;;;;;;;;5034584;28;20467;-68
2021/07/17 07:21:44;;;;;;;21.17;20.07;;;;;;;;;;5048129;28;20792;-66
2021/07/17 07:24:12;;;;;;;20.23;19.10;;;;;;;;;;5045356;28;20955;-67
2021/07/17 07:26:39;;;;;;;22.27;20.87;;;;;;;;;;5033705;28;20481;-68
2021/07/17 07:29:06;;;;;;;21.47;20.17;;;;;;;;;;5048785;28;20830;-66
2021/07/17 07:31:33;;;;;;;21.23;19.73;;;;;;;;;;5032204;28;20457;-68
2021/07/17 07:34:00;;;;;;;20.93;19.57;;;;;;;;;;5047209;28;20457;-66
2021/07/17 07:36:28;;;;;;;21.17;19.97;;;;;;;;;;5043833;28;20479;-65
2021/07/17 07:38:55;;;;;;;20.80;19.60;;;;;;;;;;5036430;28;20452;-66
2021/07/17 07:41:24;;;;;;;21.03;19.63;;;;;;;;;;5032776;28;20487;-65
2021/07/17 07:43:51;;;;;;;21.30;20.00;;;;;;;;;;5032186;28;20460;-71
2021/07/17 07:46:18;;;;;;;20.73;19.40;;;;;;;;;;5046837;28;20480;-66
2021/07/17 07:48:45;;;;;;;21.63;20.40;;;;;;;;;;5050357;28;20452;-67
2021/07/17 07:51:12;;;;;;;24.27;22.87;;;;;;;;;;5051577;28;20482;-66
2021/07/17 07:53:39;;;;;;;24.97;23.50;;;;;;;;;;5051693;28;20455;-68
2021/07/17 07:56:07;;;;;;;23.67;22.40;;;;;;;;;;5051746;28;20454;-67
2021/07/17 07:58:35;;;;;;;24.47;22.87;;;;;;;;;;5050718;28;20451;-68
2021/07/17 08:01:03;;;;;;;24.53;23.13;;;;;;;;;;5031221;28;20480;-67
2021/07/17 08:03:30;;;;;;;23.70;22.23;;;;;;;;;;5031867;28;20452;-68
2021/07/17 08:05:57;;;;;;;23.30;21.77;;;;;;;;;;5031931;28;20667;-67
2021/07/17 08:08:24;;;;;;;24.67;23.37;;;;;;;;;;5031566;28;20463;-68
2021/07/17 08:10:51;;;;;;;24.63;23.13;;;;;;;;;;5031248;28;21008;-68
2021/07/17 08:13:18;;;;;;;23.27;21.87;;;;;;;;;;5031714;28;20444;-68
2021/07/17 08:15:47;;;;;;;24.47;23.00;;;;;;;;;;5032085;28;20452;-69
2021/07/17 08:18:14;;;;;;;24.53;23.03;;;;;;;;;;5031419;28;20484;-68
2021/07/17 08:20:41;;;;;;;24.40;23.00;;;;;;;;;;5031370;28;20475;-68
2021/07/17 08:23:08;;;;;;;24.43;22.80;;;;;;;;;;5031267;28;20944;-68
2021/07/17 08:25:36;;;;;;;24.60;23.00;;;;;;;;;;5031762;28;20490;-70
2021/07/17 08:28:03;;;;;;;25.60;24.10;;;;;;;;;;5031199;28;20459;-67
2021/07/17 08:30:32;;;;;;;23.83;22.43;;;;;;;;;;5031888;28;20477;-68
2021/07/17 08:33:00;;;;;;;24.13;22.77;;;;;;;;;;5031328;28;20540;-67
2021/07/17 08:35:28;;;;;;;24.17;22.67;;;;;;;;;;5031653;28;20475;-68
2021/07/17 08:37:55;;;;;;;24.03;22.63;;;;;;;;;;5031554;28;20449;-68
2021/07/17 08:40:22;;;;;;;23.63;22.33;;;;;;;;;;5031238;28;20468;-67
2021/07/17 08:42:51;;;;;;;22.53;21.00;;;;;;;;;;5031449;28;20448;-67
2021/07/17 08:45:18;;;;;;;24.97;23.47;;;;;;;;;;5032081;28;20484;-67
2021/07/17 08:47:46;;;;;;;24.13;22.73;;;;;;;;;;5030968;28;20824;-67
2021/07/17 08:50:16;;;;;;;23.00;21.60;;;;;;;;;;5031329;28;20552;-67
2021/07/17 08:52:43;;;;;;;23.57;22.23;;;;;;;;;;5031404;28;20440;-67
2021/07/17 08:55:11;;;;;;;23.27;21.77;;;;;;;;;;5031419;28;20454;-68
2021/07/17 08:57:39;;;;;;;22.80;21.40;;;;;;;;;;5031107;28;20453;-67
2021/07/17 09:00:08;;;;;;;23.93;22.53;;;;;;;;;;5035162;28;20481;-67
2021/07/17 09:02:37;;;;;;;23.90;22.50;;;;;;;;;;5035021;28;20458;-67
2021/07/17 09:05:05;;;;;;;23.20;21.90;;;;;;;;;;5035176;28;20455;-69
2021/07/17 09:07:34;;;;;;;22.63;21.30;;;;;;;;;;5034993;28;20456;-70
2021/07/17 09:10:01;;;;;;;25.17;22.07;;;;;;;;;;5034662;28;20987;-67
2021/07/17 09:12:28;;;;;;;23.70;22.30;;;;;;;;;;5035156;28;20450;-66
2021/07/17 09:14:55;;;;;;;24.07;22.47;;;;;;;;;;5036141;28;20462;-68
2021/07/17 09:17:23;;;;;;;24.77;23.30;;;;;;;;;;5035434;28;20451;-67
2021/07/17 09:19:54;;;;;;;23.40;22.00;;;;;;;;;;5034681;28;20526;-67
2021/07/17 09:22:31;;;;;;;23.37;22.07;;;;;;;;;;5034684;28;20444;-67
2021/07/17 09:25:07;;;;;;;24.97;23.47;;;;;;;;;;5034895;28;20467;-66
2021/07/17 09:27:34;;;;;;;24.17;22.67;;;;;;;;;;5034744;28;20432;-66
2021/07/17 09:30:01;;;;;;;23.97;22.53;;;;;;;;;;5035024;28;20479;-68
2021/07/17 09:32:28;;;;;;;24.90;23.17;;;;;;;;;;5034696;28;20440;-66
2021/07/17 09:34:55;;;;;;;23.10;21.80;;;;;;;;;;5034311;28;20962;-66
2021/07/17 09:37:24;;;;;;;22.47;21.07;;;;;;;;;;5034682;28;20429;-66
2021/07/17 09:39:52;;;;;;;22.90;21.60;;;;;;;;;;5034277;28;21001;-66
2021/07/17 09:42:22;;;;;;;23.70;22.43;;;;;;;;;;5034291;28;20440;-65
2021/07/17 09:44:49;;;;;;;22.87;21.50;;;;;;;;;;5037286;28;20440;-65
2021/07/17 09:47:17;;;;;;;21.43;20.13;;;;;;;;;;5043438;28;21002;-68
2021/07/17 09:49:45;;;;;;;22.10;20.90;;;;;;;;;;5054433;28;20467;-68
2021/07/17 09:52:12;;;;;;;20.60;19.40;;;;;;;;;;5053973;28;20469;-66
2021/07/17 09:54:40;;;;;;;21.83;20.23;;;;;;;;;;5054355;28;20447;-66
2021/07/17 09:57:07;;;;;;;21.53;20.03;;;;;;;;;;5054107;28;20444;-69
2021/07/17 09:59:36;;;;;;;18.77;17.77;;;;;;;;;;5045042;28;20476;-69
2021/07/17 10:02:03;;;;;;;20.97;19.57;;;;;;;;;;5049635;28;20451;-69
2021/07/17 10:04:30;;;;;;;20.97;19.60;;;;;;;;;;5050316;28;20454;-69
2021/07/17 10:06:59;;;;;;;18.37;17.17;;;;;;;;;;5042734;28;20471;-68
2021/07/17 10:09:30;;;;;;;18.37;17.27;;;;;;;;;;5053955;28;20478;-68
2021/07/17 10:12:00;;;;;;;17.27;16.37;;;;;;;;;;5053695;28;20817;-68
2021/07/17 10:14:28;;;;;;;20.27;19.10;;;;;;;;;;5053986;28;20449;-68
2021/07/17 10:16:58;;;;;;;20.10;19.00;;;;;;;;;;5050417;28;20461;-68
2021/07/17 10:19:26;;;;;;;20.27;18.97;;;;;;;;;;5053552;28;20471;-68
2021/07/17 10:21:54;;;;;;;20.10;19.00;;;;;;;;;;5052735;28;20437;-69
2021/07/17 10:24:22;;;;;;;19.93;18.70;;;;;;;;;;5053935;28;20446;-69
2021/07/17 10:26:51;;;;;;;19.63;18.53;;;;;;;;;;5053561;28;20478;-69
2021/07/17 10:29:19;;;;;;;19.37;18.37;;;;;;;;;;5053580;28;20516;-68
2021/07/17 10:31:47;;;;;;;20.87;19.50;;;;;;;;;;5053329;28;20458;-69
2021/07/17 10:34:16;;;;;;;19.37;18.27;;;;;;;;;;5053430;28;20453;-68
2021/07/17 10:36:45;;;;;;;20.10;19.00;;;;;;;;;;5053122;28;20443;-68
2021/07/17 10:39:13;;;;;;;19.43;18.30;;;;;;;;;;5052443;28;20477;-68
2021/07/17 10:41:41;;;;;;;19.20;18.20;;;;;;;;;;5053425;28;20455;-68
2021/07/17 10:44:09;;;;;;;19.67;18.47;;;;;;;;;;5052973;28;20501;-68
2021/07/17 10:46:36;;;;;;;18.90;17.90;;;;;;;;;;5053039;28;20485;-67
2021/07/17 10:49:05;;;;;;;19.63;18.53;;;;;;;;;;5052853;28;20451;-68
2021/07/17 10:51:34;;;;;;;19.40;18.10;;;;;;;;;;5052880;28;20448;-68
2021/07/17 10:54:03;;;;;;;18.73;17.73;;;;;;;;;;5053036;28;20451;-68
2021/07/17 10:56:37;;;;;;;18.90;17.90;;;;;;;;;;5053127;28;20513;-68
2021/07/17 10:59:09;;;;;;;19.07;17.87;;;;;;;;;;5044883;28;20545;-68
2021/07/17 11:01:55;;;;;;;18.77;17.67;;;;;;;;;;5052687;28;20450;-68
2021/07/17 11:04:33;;;;;;;18.87;17.87;;;;;;;;;;5052474;28;20960;-68
2021/07/17 11:09:54;;;;;;;18.47;17.47;;;;;;;;;;5084170;28;20537;-70
2021/07/17 11:12:22;;;;;;;17.87;16.53;;;;;;;;;;5081831;28;20442;-69
2021/07/17 11:14:49;;;;;;;18.23;17.13;;;;;;;;;;5088133;28;20533;-68
2021/07/17 11:17:31;;;;;;;18.90;17.80;;;;;;;;;;5069866;28;20828;-68
2021/07/17 11:20:16;;;;;;;18.50;17.50;;;;;;;;;;5068723;28;20443;-69
2021/07/17 11:22:44;;;;;;;18.97;17.87;;;;;;;;;;5067432;28;20545;-69
2021/07/17 11:25:16;;;;;;;17.80;16.80;;;;;;;;;;5068423;28;20463;-69
2021/07/17 11:27:43;;;;;;;16.73;15.93;;;;;;;;;;5068225;28;20243;-69
2021/07/17 11:30:14;;;;;;;16.60;15.70;;;;;;;;;;5068869;28;20214;-69
2021/07/17 11:33:03;;;;;;;19.80;18.67;;;;;;;;;;5068032;28;20512;-69
2021/07/17 11:35:32;;;;;;;19.50;18.50;;;;;;;;;;5065586;28;20223;-69
2021/07/17 11:37:59;;;;;;;16.80;15.80;;;;;;;;;;5069352;28;20193;-68
2021/07/17 11:40:26;;;;;;;16.60;15.70;;;;;;;;;;5048638;28;20443;-69
2021/07/17 11:42:53;;;;;;;17.03;16.17;;;;;;;;;;5055737;28;20447;-69
2021/07/17 11:45:20;;;;;;;17.37;16.43;;;;;;;;;;5066883;28;20938;-69
2021/07/17 11:47:49;;;;;;;16.90;16.00;;;;;;;;;;5067912;28;20451;-69
2021/07/17 11:50:16;;;;;;;17.23;16.23;;;;;;;;;;5067497;28;20457;-69
2021/07/17 11:52:44;;;;;;;17.30;16.00;;;;;;;;;;5048119;28;20451;-69
2021/07/17 11:55:12;;;;;;;17.50;16.50;;;;;;;;;;5064556;28;20208;-69
2021/07/17 11:57:40;;;;;;;18.43;17.30;;;;;;;;;;5067686;28;20941;-69
2021/07/17 12:00:09;;;;;;;17.70;16.83;;;;;;;;;;5067259;28;20469;-69
2021/07/17 12:02:36;;;;;;;18.50;17.23;;;;;;;;;;5067916;28;20452;-70
2021/07/17 12:05:06;;;;;;;18.70;17.70;;;;;;;;;;5066570;28;20472;-70
2021/07/17 12:07:33;;;;;;;18.13;17.23;;;;;;;;;;5066032;28;21010;-70
2021/07/17 12:10:03;;;;;;;17.97;17.07;;;;;;;;;;5066755;28;20711;-70
2021/07/17 12:12:31;;;;;;;18.63;17.63;;;;;;;;;;5067872;28;20446;-70
2021/07/17 12:15:09;;;;;;;18.20;17.30;;;;;;;;;;5065509;28;20291;-70
2021/07/17 12:17:37;;;;;;;19.33;18.30;;;;;;;;;;5067848;28;20214;-70
2021/07/17 12:20:12;;;;;;;18.90;18.00;;;;;;;;;;5059967;28;20447;-70
2021/07/17 12:22:46;;;;;;;19.30;18.40;;;;;;;;;;5054719;28;20444;-70
2021/07/17 12:25:16;;;;;;;19.40;18.40;;;;;;;;;;5053399;28;20205;-70
2021/07/17 12:28:07;;;;;;;19.50;18.60;;;;;;;;;;5053996;28;20465;-68
2021/07/17 12:30:36;;;;;;;19.80;18.83;;;;;;;;;;5043781;28;20530;-70
2021/07/17 12:33:23;;;;;;;19.70;18.80;;;;;;;;;;5053612;28;20770;-70
2021/07/17 12:35:51;;;;;;;20.10;19.10;;;;;;;;;;5053280;28;21079;-69
2021/07/17 12:38:22;;;;;;;19.77;18.77;;;;;;;;;;5054291;28;20450;-71
2021/07/17 12:40:52;;;;;;;19.10;18.10;;;;;;;;;;5049938;28;20471;-69
2021/07/17 12:43:32;;;;;;;18.53;17.63;;;;;;;;;;5054682;28;20450;-70
2021/07/17 12:46:01;;;;;;;19.53;18.53;;;;;;;;;;5053113;28;20985;-69
2021/07/17 12:48:28;;;;;;;19.60;18.50;;;;;;;;;;5050689;28;20483;-69
2021/07/17 12:51:06;;;;;;;20.20;18.97;;;;;;;;;;5052272;28;20467;-70
2021/07/17 12:53:33;;;;;;;19.10;18.17;;;;;;;;;;5053641;28;20459;-69
2021/07/17 12:56:02;;;;;;;19.07;18.07;;;;;;;;;;5053361;28;20487;-68
2021/07/17 12:58:30;;;;;;;18.30;17.30;;;;;;;;;;5052121;28;20471;-69
2021/07/17 13:00:57;;;;;;;18.10;17.10;;;;;;;;;;5049701;28;20455;-69
2021/07/17 13:03:24;;;;;;;18.30;17.30;;;;;;;;;;5054032;28;20443;-69
2021/07/17 13:05:53;;;;;;;19.50;18.50;;;;;;;;;;5053233;28;20487;-70
2021/07/17 13:08:21;;;;;;;18.57;17.57;;;;;;;;;;5052825;28;20887;-69
2021/07/17 13:10:48;;;;;;;18.60;17.60;;;;;;;;;;5051403;28;20467;-68
2021/07/17 13:13:16;;;;;;;19.00;17.90;;;;;;;;;;5053137;28;20439;-68
2021/07/17 13:15:51;;;;;;;18.30;17.30;;;;;;;;;;5051153;28;20835;-68
2021/07/17 13:18:19;;;;;;;18.90;17.70;;;;;;;;;;5052955;28;20458;-68
2021/07/17 13:20:46;;;;;;;17.77;16.87;;;;;;;;;;5050817;28;20466;-68
2021/07/17 13:23:13;;;;;;;18.37;17.30;;;;;;;;;;5053646;28;20810;-68
2021/07/17 13:25:41;;;;;;;17.97;17.07;;;;;;;;;;5052649;28;20498;-68
2021/07/17 13:28:11;;;;;;;17.70;16.80;;;;;;;;;;5053464;28;20766;-68
2021/07/17 13:30:42;;;;;;;18.80;17.57;;;;;;;;;;5051893;28;20534;-68
2021/07/17 13:33:12;;;;;;;18.30;17.30;;;;;;;;;;5050544;28;20470;-69
2021/07/17 13:35:41;;;;;;;18.10;17.10;;;;;;;;;;5053461;28;20475;-68
2021/07/17 13:38:09;;;;;;;18.40;17.30;;;;;;;;;;5051764;28;20467;-68
2021/07/17 13:40:36;;;;;;;17.77;16.87;;;;;;;;;;5052641;28;20462;-68
2021/07/17 13:43:04;;;;;;;18.10;17.00;;;;;;;;;;5049360;28;20486;-68
2021/07/17 13:45:32;;;;;;;17.47;16.57;;;;;;;;;;5047557;28;20535;-68
2021/07/17 13:48:01;;;;;;;17.73;16.73;;;;;;;;;;5051254;28;20469;-68
2021/07/17 13:50:29;;;;;;;17.90;16.93;;;;;;;;;;5053600;28;21028;-69
2021/07/17 13:53:03;;;;;;;17.57;16.67;;;;;;;;;;5053809;28;20465;-69
2021/07/17 13:55:31;;;;;;;18.33;17.33;;;;;;;;;;5053964;28;20496;-69
2021/07/17 13:58:11;;;;;;;18.13;17.20;;;;;;;;;;5053117;28;20447;-69
2021/07/17 14:00:42;;;;;;;18.37;17.47;;;;;;;;;;5052750;28;20447;-68
2021/07/17 14:03:11;;;;;;;18.93;17.87;;;;;;;;;;5052286;28;20550;-66
2021/07/17 14:05:38;;;;;;;18.07;17.13;;;;;;;;;;5051780;28;21001;-65
2021/07/17 14:08:05;;;;;;;18.00;17.13;;;;;;;;;;5052253;28;20463;-65
2021/07/17 14:10:32;;;;;;;19.20;18.00;;;;;;;;;;5051109;28;20475;-66
2021/07/17 14:13:00;;;;;;;18.33;17.33;;;;;;;;;;5051239;28;20467;-67
2021/07/17 14:15:27;;;;;;;18.50;17.40;;;;;;;;;;5051082;28;21015;-64
2021/07/17 14:17:54;;;;;;;19.10;18.10;;;;;;;;;;5049929;28;20978;-67
2021/07/17 14:20:23;;;;;;;18.80;17.87;;;;;;;;;;5051251;28;20495;-70
2021/07/17 14:22:50;;;;;;;18.93;17.83;;;;;;;;;;5042024;28;20840;-69
2021/07/17 14:25:17;;;;;;;18.80;17.70;;;;;;;;;;5053690;28;20468;-70